»·PEaware :: N802VT KAJO-KVCV

N802VT :: KAJO-KVCV

FLIGHT INFORMATION

Flight Status: Arrived
Operator: Privately registered:
United States
More flights under this callsign
Pilot: Anonymous 16273 (16273)
Aircraft: BEECH AIRCRAFT BARON
(BE58)
More flights by this aircraft type
Origin: KAJO Corona Mun
United States
Destination: KVCV Socal Logistics
United States
More flights between these airports :: More routes between these airports
Route: +PDZ V442 APLES
File this flight plan on PilotEdge
Remarks: I-11 Rating
Altitude:
(Current/Filed)
11,000ft
Speed:
(Current/Filed)
160kts
Departed: 30-Nov-20 05:44 PM
Arrived: 30-Nov-20 06:48 PM
Distance/Time
Traveled:
43nm/1:04
Distance/Time
To Go:
Arrived

Flight Plot

Page will automatically refresh every two minutes.


Map Options




Map Legend


Flown Route
Filed Route
Departure Airport
Arrival Airport
Navaid (VOR, NDB)
Fix

Horizontal Profiles

Position Reports

Time Latitude Longitude Heading Altitude Ground
Speed
30-Nov-20 17:34 33.896930 -117.602001 181 537ft 0kts
30-Nov-20 17:35 33.896892 -117.601874 84 537ft 2kts
30-Nov-20 17:36 33.897079 -117.601466 81 537ft 5kts
30-Nov-20 17:37 33.897244 -117.597752 104 537ft 11kts
30-Nov-20 17:38 33.897838 -117.597496 358 537ft 3kts
30-Nov-20 17:39 33.897853 -117.597496 358 537ft 0kts
30-Nov-20 17:40 33.897853 -117.597496 358 537ft 0kts
30-Nov-20 17:41 33.897853 -117.597496 358 537ft 0kts
30-Nov-20 17:42 33.897882 -117.597497 358 537ft 0kts
30-Nov-20 17:43 33.897754 -117.608130 271 624ft 104kts
30-Nov-20 17:44 33.914262 -117.629971 35 2171ft 126kts
30-Nov-20 17:45 33.921033 -117.592159 92 3878ft 118kts
30-Nov-20 17:46 33.919446 -117.552372 91 5299ft 122kts
30-Nov-20 17:47 33.928066 -117.514135 42 6288ft 138kts
30-Nov-20 17:48 33.963039 -117.476164 26 6094ft 176kts
30-Nov-20 17:49 33.977212 -117.506580 208 6005ft 170kts
30-Nov-20 17:50 33.930331 -117.517235 191 6016ft 175kts
30-Nov-20 17:51 33.904012 -117.554251 300 6072ft 157kts
30-Nov-20 17:52 33.944075 -117.544556 30 6023ft 172kts
30-Nov-20 17:53 33.983644 -117.512237 40 5997ft 174kts
30-Nov-20 17:54 33.961545 -117.480310 190 6123ft 165kts
30-Nov-20 17:55 33.927522 -117.516282 229 6342ft 157kts
30-Nov-20 17:56 33.924077 -117.553524 349 7340ft 137kts
30-Nov-20 17:57 33.953570 -117.528394 38 8515ft 131kts
30-Nov-20 17:58 33.980256 -117.498697 38 9527ft 130kts
30-Nov-20 17:59 34.009462 -117.474870 20 10459ft 125kts
30-Nov-20 18:00 34.041564 -117.452309 30 11037ft 146kts
30-Nov-20 18:01 34.082109 -117.430687 21 11015ft 170kts
30-Nov-20 18:02 34.125283 -117.405510 22 11000ft 174kts
30-Nov-20 18:03 34.168672 -117.379448 22 10998ft 174kts
30-Nov-20 18:05 34.212188 -117.353215 22 10969ft 176kts
30-Nov-20 18:06 34.256663 -117.326380 23 10873ft 176kts
30-Nov-20 18:07 34.300173 -117.300099 23 10894ft 174kts
30-Nov-20 18:08 34.346379 -117.277711 31 10373ft 193kts
30-Nov-20 18:09 34.393327 -117.250556 25 9655ft 190kts
30-Nov-20 18:10 34.439108 -117.220807 26 8369ft 181kts
30-Nov-20 18:11 34.477675 -117.195737 26 7935ft 153kts
30-Nov-20 18:12 34.513704 -117.172200 25 7911ft 139kts
30-Nov-20 18:13 34.546546 -117.151070 18 7945ft 130kts
30-Nov-20 18:14 34.583349 -117.143418 1 7675ft 142kts
30-Nov-20 18:15 34.623908 -117.145619 350 7223ft 148kts
30-Nov-20 18:16 34.664235 -117.158026 339 6714ft 153kts
30-Nov-20 18:17 34.700250 -117.179188 328 6534ft 130kts
30-Nov-20 18:18 34.727872 -117.203854 319 6560ft 120kts
30-Nov-20 18:19 34.751033 -117.232802 310 6573ft 119kts
30-Nov-20 18:20 34.770068 -117.266092 301 6572ft 120kts
30-Nov-20 18:21 34.784817 -117.304067 291 6110ft 131kts
30-Nov-20 18:22 34.794534 -117.347916 281 5337ft 136kts
30-Nov-20 18:22 34.785044 -117.377826 184 4934ft 148kts
30-Nov-20 18:24 34.735441 -117.379827 201 3886ft 137kts
30-Nov-20 18:24 34.708171 -117.380626 181 4288ft 130kts
30-Nov-20 18:26 34.668981 -117.383519 184 3604ft 97kts
30-Nov-20 18:26 34.647432 -117.385367 184 3308ft 97kts
30-Nov-20 18:28 34.611760 -117.387842 183 3740ft 114kts
30-Nov-20 18:28 34.602765 -117.409887 308 4704ft 112kts
30-Nov-20 18:29 34.615849 -117.443105 277 5843ft 111kts
30-Nov-20 18:30 34.620469 -117.483490 279 6476ft 130kts
30-Nov-20 18:31 34.626349 -117.532784 279 5961ft 164kts
30-Nov-20 18:32 34.630029 -117.583526 282 5973ft 145kts
30-Nov-20 18:33 34.638967 -117.632011 284 5981ft 147kts
30-Nov-20 18:34 34.647379 -117.680728 263 5937ft 151kts
30-Nov-20 18:35 34.616643 -117.678654 105 5942ft 154kts
30-Nov-20 18:36 34.616084 -117.634813 87 5933ft 108kts
30-Nov-20 18:37 34.631353 -117.609034 41 6010ft 108kts
30-Nov-20 18:38 34.644848 -117.570251 70 6032ft 136kts
30-Nov-20 18:39 34.662685 -117.530259 42 5996ft 137kts
30-Nov-20 18:40 34.690361 -117.497668 42 5874ft 141kts
30-Nov-20 18:41 34.719772 -117.463297 42 5485ft 143kts
30-Nov-20 18:42 34.744893 -117.427991 87 5403ft 142kts
30-Nov-20 18:43 34.719392 -117.393438 138 5362ft 148kts
30-Nov-20 18:44 34.687387 -117.387411 179 4215ft 108kts
30-Nov-20 18:45 34.659408 -117.387137 179 3628ft 93kts
30-Nov-20 18:46 34.633678 -117.386881 179 3174ft 94kts
30-Nov-20 18:47 34.611657 -117.386681 178 2888ft 23kts
30-Nov-20 18:48 34.610277 -117.384255 147 2888ft 13kts
30-Nov-20 18:49 34.604694 -117.384137 179 2888ft 28kts
30-Nov-20 18:50 34.597220 -117.384064 179 2888ft 22kts
30-Nov-20 18:51 34.592236 -117.380771 134 2888ft 25kts
30-Nov-20 18:52 34.588296 -117.375901 134 2888ft 10kts
30-Nov-20 18:53 34.587742 -117.375726 313 2888ft 0kts

Navigation Log

Ident Type
Flight plan parsing failed, navigation log unavailable